createdAt,value
2023-03-18T00:01:16.007Z,52.60
2023-03-18T00:03:42.805Z,52.60
2023-03-18T00:06:13.974Z,52.60
2023-03-18T00:08:41.145Z,52.50
2023-03-18T00:11:08.453Z,52.50
2023-03-18T00:13:35.087Z,52.60
2023-03-18T00:16:02.552Z,52.60
2023-03-18T00:18:29.527Z,52.50
2023-03-18T00:20:58.077Z,52.60
2023-03-18T00:23:26.117Z,52.60
2023-03-18T00:25:53.802Z,52.60
2023-03-18T00:28:20.334Z,52.60
2023-03-18T00:30:47.549Z,52.60
2023-03-18T00:33:14.270Z,52.60
2023-03-18T00:35:40.937Z,52.50
2023-03-18T00:38:08.945Z,52.60
2023-03-18T00:40:53.260Z,52.50
2023-03-18T00:43:22.676Z,52.50
2023-03-18T00:45:50.630Z,52.50
2023-03-18T00:48:17.679Z,52.50
2023-03-18T00:50:45.133Z,52.50
2023-03-18T00:53:12.893Z,52.50
2023-03-18T00:55:39.396Z,52.50
2023-03-18T00:58:06.002Z,52.50
2023-03-18T01:00:32.856Z,52.50
2023-03-18T01:03:00.052Z,52.50
2023-03-18T01:05:26.621Z,52.50
2023-03-18T01:07:53.460Z,52.50
2023-03-18T01:10:20.576Z,52.50
2023-03-18T01:12:47.175Z,52.50
2023-03-18T01:15:15.392Z,52.40
2023-03-18T01:17:42.505Z,52.50
2023-03-18T01:20:11.445Z,52.50
2023-03-18T01:22:38.029Z,52.50
2023-03-18T01:25:04.750Z,52.40
2023-03-18T01:27:31.661Z,52.40
2023-03-18T01:29:58.530Z,52.50
2023-03-18T01:32:25.107Z,52.40
2023-03-18T01:34:51.622Z,52.40
2023-03-18T01:37:19.621Z,52.40
2023-03-18T01:39:46.675Z,52.40
2023-03-18T01:42:14.447Z,52.40
2023-03-18T01:44:40.967Z,52.50
2023-03-18T01:47:10.402Z,52.40
2023-03-18T01:49:38.900Z,52.40
2023-03-18T01:52:07.234Z,52.40
2023-03-18T01:54:37.706Z,52.40
2023-03-18T01:57:04.364Z,52.40
2023-03-18T01:59:33.316Z,52.40
2023-03-18T02:02:09.032Z,52.40
2023-03-18T02:04:41.110Z,52.30
2023-03-18T02:07:07.897Z,52.30
2023-03-18T02:09:34.587Z,52.30
2023-03-18T02:12:01.788Z,52.30
2023-03-18T02:14:28.343Z,52.30
2023-03-18T02:16:58.184Z,52.50
2023-03-18T02:19:43.538Z,52.30
2023-03-18T02:22:17.920Z,52.30
2023-03-18T02:24:50.061Z,52.30
2023-03-18T02:27:20.992Z,52.30
2023-03-18T02:29:48.450Z,52.30
2023-03-18T02:32:15.349Z,52.30
2023-03-18T02:34:42.816Z,52.30
2023-03-18T02:37:09.444Z,52.20
2023-03-18T02:39:36.797Z,52.30
2023-03-18T02:42:04.044Z,52.30
2023-03-18T02:44:30.832Z,52.20
2023-03-18T02:46:59.233Z,52.30
2023-03-18T02:49:27.583Z,52.20
2023-03-18T02:51:54.670Z,52.20
2023-03-18T02:54:23.409Z,52.20
2023-03-18T02:56:50.269Z,52.20
2023-03-18T02:59:17.112Z,52.20
2023-03-18T03:01:44.716Z,52.20
2023-03-18T03:04:12.281Z,52.20
2023-03-18T03:06:39.331Z,52.20
2023-03-18T03:09:06.772Z,52.30
2023-03-18T03:11:33.573Z,52.20
2023-03-18T03:14:00.210Z,52.20
2023-03-18T03:16:26.733Z,52.20
2023-03-18T03:18:53.251Z,52.20
2023-03-18T03:21:20.070Z,52.10
2023-03-18T03:23:47.655Z,52.20
2023-03-18T03:26:14.828Z,52.20
2023-03-18T03:28:41.603Z,52.20
2023-03-18T03:31:09.731Z,52.20
2023-03-18T03:33:41.176Z,52.10
2023-03-18T03:36:09.391Z,52.10
2023-03-18T03:38:35.964Z,52.10
2023-03-18T03:41:02.765Z,52.10
2023-03-18T03:43:29.608Z,52.10
2023-03-18T03:45:56.692Z,52.20
2023-03-18T03:48:23.181Z,52.10
2023-03-18T03:50:50.292Z,52.10
2023-03-18T03:53:16.995Z,52.20
2023-03-18T03:55:44.370Z,52.10
2023-03-18T03:58:10.884Z,52.10
2023-03-18T04:00:37.726Z,52.00
2023-03-18T04:03:04.669Z,52.00
2023-03-18T04:05:31.363Z,52.00
2023-03-18T04:08:01.162Z,52.00
2023-03-18T04:10:28.008Z,52.00
2023-03-18T04:12:54.940Z,52.10
2023-03-18T04:15:22.068Z,51.90
2023-03-18T04:17:49.822Z,52.00
2023-03-18T04:20:17.131Z,52.10
2023-03-18T04:22:44.252Z,52.00
2023-03-18T04:25:11.354Z,52.00
2023-03-18T04:27:38.635Z,52.00
2023-03-18T04:30:06.843Z,52.10
2023-03-18T04:32:33.749Z,52.00
2023-03-18T04:35:00.620Z,52.00
2023-03-18T04:37:27.236Z,51.90
2023-03-18T04:39:53.874Z,52.00
2023-03-18T04:42:20.536Z,52.00
2023-03-18T04:44:47.160Z,52.00
2023-03-18T04:47:13.751Z,51.90
2023-03-18T04:49:40.628Z,51.90
2023-03-18T04:52:07.892Z,52.00
2023-03-18T04:54:34.514Z,51.90
2023-03-18T04:57:01.471Z,51.80
2023-03-18T04:59:28.028Z,51.80
2023-03-18T05:01:54.535Z,51.90
2023-03-18T05:04:21.108Z,51.90
2023-03-18T05:06:47.613Z,51.90
2023-03-18T05:09:14.308Z,52.00
2023-03-18T05:11:40.908Z,51.90
2023-03-18T05:14:07.504Z,51.90
2023-03-18T05:16:34.128Z,51.80
2023-03-18T05:19:00.901Z,51.80
2023-03-18T05:21:29.417Z,51.80
2023-03-18T05:23:57.215Z,51.80
2023-03-18T05:26:24.602Z,51.80
2023-03-18T05:28:51.380Z,52.00
2023-03-18T05:31:18.379Z,51.60
2023-03-18T05:33:45.079Z,51.70
2023-03-18T05:36:12.012Z,51.70
2023-03-18T05:38:38.572Z,51.70
2023-03-18T05:41:05.137Z,51.80
2023-03-18T05:43:31.867Z,51.80
2023-03-18T05:45:58.587Z,51.80
2023-03-18T05:48:25.655Z,51.70
2023-03-18T05:50:52.331Z,51.60
2023-03-18T05:53:18.835Z,51.60
2023-03-18T05:55:45.340Z,51.70
2023-03-18T05:58:12.569Z,51.60
2023-03-18T06:00:39.147Z,51.70
2023-03-18T06:03:05.740Z,51.70
2023-03-18T06:05:32.593Z,51.60
2023-03-18T06:08:01.304Z,51.70
2023-03-18T06:10:28.946Z,51.70
2023-03-18T06:12:55.710Z,51.60
2023-03-18T06:15:22.601Z,51.50
2023-03-18T06:17:49.109Z,51.60
2023-03-18T06:20:16.272Z,51.60
2023-03-18T06:22:43.793Z,51.60
2023-03-18T06:25:10.879Z,51.70
2023-03-18T06:27:37.591Z,51.60
2023-03-18T06:30:05.447Z,51.70
2023-03-18T06:32:33.809Z,51.70
2023-03-18T06:35:00.488Z,51.50
2023-03-18T06:37:27.054Z,51.70
2023-03-18T06:39:53.933Z,51.60
2023-03-18T06:42:20.561Z,51.60
2023-03-18T06:44:50.638Z,51.60
2023-03-18T06:47:18.887Z,51.60
2023-03-18T06:49:45.667Z,51.60
2023-03-18T06:52:13.510Z,51.50
2023-03-18T06:54:40.263Z,51.60
2023-03-18T06:57:07.457Z,51.60
2023-03-18T06:59:34.126Z,51.60
2023-03-18T07:02:00.791Z,51.60
2023-03-18T07:04:27.444Z,51.60
2023-03-18T07:06:54.023Z,51.50
2023-03-18T07:09:20.599Z,51.50
2023-03-18T07:11:47.183Z,51.40
2023-03-18T07:14:14.496Z,51.40
2023-03-18T07:16:41.247Z,51.40
2023-03-18T07:19:08.123Z,51.40
2023-03-18T07:21:35.756Z,51.50
2023-03-18T07:24:03.859Z,51.40
2023-03-18T07:26:30.424Z,51.50
2023-03-18T07:28:57.107Z,51.30
2023-03-18T07:31:23.788Z,51.30
2023-03-18T07:33:50.617Z,51.30
2023-03-18T07:36:17.321Z,51.30
2023-03-18T07:38:43.858Z,51.40
2023-03-18T07:41:11.181Z,51.40
2023-03-18T07:43:38.545Z,51.40
2023-03-18T07:46:05.662Z,51.40
2023-03-18T07:48:34.119Z,51.30
2023-03-18T07:51:01.212Z,51.30
2023-03-18T07:53:27.804Z,51.30
2023-03-18T07:55:54.757Z,51.30
2023-03-18T07:58:21.268Z,51.20
2023-03-18T08:00:47.813Z,51.10
2023-03-18T08:03:14.814Z,51.20
2023-03-18T08:05:41.326Z,51.20
2023-03-18T08:08:07.884Z,51.20
2023-03-18T08:10:35.347Z,51.30
2023-03-18T08:13:02.901Z,51.30
2023-03-18T08:15:29.652Z,51.30
2023-03-18T08:17:56.510Z,51.20
2023-03-18T08:20:23.227Z,51.20
2023-03-18T08:22:50.259Z,51.10
2023-03-18T08:25:17.102Z,51.20
2023-03-18T08:27:43.753Z,51.30
2023-03-18T08:30:11.032Z,51.30
2023-03-18T08:32:37.670Z,51.10
2023-03-18T08:35:05.140Z,51.30
2023-03-18T08:37:31.671Z,51.30
2023-03-18T08:39:58.658Z,51.20
2023-03-18T08:42:25.307Z,51.30
2023-03-18T08:44:51.841Z,51.20
2023-03-18T08:47:18.404Z,51.20
2023-03-18T08:49:45.374Z,51.20
2023-03-18T08:52:12.049Z,51.20
2023-03-18T08:54:39.524Z,51.20
2023-03-18T08:57:06.072Z,51.40
2023-03-18T08:59:32.589Z,51.30
2023-03-18T09:01:59.160Z,51.30
2023-03-18T09:04:25.938Z,51.30
2023-03-18T09:06:52.502Z,51.20
2023-03-18T09:09:19.207Z,51.10
2023-03-18T09:11:46.362Z,51.20
2023-03-18T09:14:13.285Z,51.10
2023-03-18T09:16:40.375Z,51.20
2023-03-18T09:19:06.939Z,51.10
2023-03-18T09:21:33.462Z,51.10
2023-03-18T09:24:00.051Z,51.10
2023-03-18T09:26:26.584Z,51.20
2023-03-18T09:28:53.525Z,51.10
2023-03-18T09:31:20.609Z,51.20
2023-03-18T09:33:47.628Z,51.20
2023-03-18T09:36:14.682Z,51.20
2023-03-18T09:38:42.516Z,51.20
2023-03-18T09:41:16.418Z,51.00
2023-03-18T09:43:44.733Z,51.00
2023-03-18T09:46:14.701Z,51.10
2023-03-18T09:49:00.054Z,51.00
2023-03-18T09:51:30.359Z,51.20
2023-03-18T09:53:59.303Z,51.20
2023-03-18T09:56:28.820Z,51.30
2023-03-18T09:58:58.418Z,51.10
2023-03-18T10:01:27.050Z,51.00
2023-03-18T10:03:53.731Z,51.00
2023-03-18T10:06:21.414Z,51.00
2023-03-18T10:09:07.791Z,51.00
2023-03-18T10:11:34.409Z,50.90
2023-03-18T10:14:10.332Z,50.90
2023-03-18T10:16:54.669Z,50.90
2023-03-18T10:19:21.445Z,50.90
2023-03-18T10:22:06.689Z,50.90
2023-03-18T10:24:40.516Z,50.90
2023-03-18T10:27:16.939Z,51.00
2023-03-18T10:30:03.759Z,51.00
2023-03-18T10:32:50.422Z,50.90
2023-03-18T10:35:41.276Z,51.00
2023-03-18T10:38:27.073Z,51.10
2023-03-18T10:40:54.302Z,51.00
2023-03-18T10:43:22.989Z,51.10
2023-03-18T10:45:54.851Z,51.10
2023-03-18T10:48:27.421Z,51.10
2023-03-18T10:51:16.793Z,51.10
2023-03-18T10:54:03.699Z,51.10
2023-03-18T10:56:30.514Z,51.10
2023-03-18T10:58:57.457Z,51.00
2023-03-18T11:01:25.749Z,51.00
2023-03-18T11:03:54.596Z,51.70
2023-03-18T11:06:32.708Z,51.00
2023-03-18T11:09:06.141Z,51.20
2023-03-18T11:11:34.633Z,51.10
2023-03-18T11:14:04.587Z,50.90
2023-03-18T11:16:38.175Z,50.90
2023-03-18T11:19:20.847Z,51.00
2023-03-18T11:21:47.512Z,51.00
2023-03-18T11:24:36.176Z,51.10
2023-03-18T11:27:03.097Z,51.20
2023-03-18T11:29:33.016Z,51.00
2023-03-18T11:32:01.311Z,51.00
2023-03-18T11:34:29.027Z,51.00
2023-03-18T11:37:06.048Z,51.00
2023-03-18T11:39:34.521Z,51.00
2023-03-18T11:42:01.476Z,51.00
2023-03-18T11:44:30.840Z,51.00
2023-03-18T11:47:00.884Z,51.10
2023-03-18T11:49:28.372Z,51.00
2023-03-18T11:51:54.943Z,51.00
2023-03-18T11:54:21.595Z,51.00
2023-03-18T11:56:48.445Z,51.20
2023-03-18T11:59:24.039Z,51.00
2023-03-18T12:01:59.821Z,51.10
2023-03-18T12:04:41.753Z,51.10
2023-03-18T12:07:19.820Z,51.20
2023-03-18T12:09:49.203Z,51.10
2023-03-18T12:12:27.912Z,51.10
2023-03-18T12:15:14.846Z,51.20
2023-03-18T12:17:49.275Z,51.00
2023-03-18T12:20:29.198Z,51.00
2023-03-18T12:22:56.347Z,51.00
2023-03-18T12:25:30.516Z,51.00
2023-03-18T12:28:00.504Z,51.70
2023-03-18T12:30:39.279Z,51.10
2023-03-18T12:33:23.570Z,51.80
2023-03-18T12:36:09.008Z,51.10
2023-03-18T12:38:45.189Z,51.10
2023-03-18T12:41:35.404Z,51.00
2023-03-18T12:44:12.156Z,51.10
2023-03-18T12:46:50.951Z,51.10
2023-03-18T12:49:26.167Z,51.10
2023-03-18T12:52:02.786Z,51.10
2023-03-18T12:54:32.135Z,50.90
2023-03-18T12:57:01.661Z,51.10
2023-03-18T12:59:35.375Z,51.10
2023-03-18T13:02:05.142Z,51.00
2023-03-18T13:04:33.223Z,51.00
2023-03-18T13:07:15.823Z,51.10
2023-03-18T13:09:48.543Z,51.00
2023-03-18T13:12:26.347Z,51.00
2023-03-18T13:14:59.928Z,51.10
2023-03-18T13:17:36.082Z,51.10
2023-03-18T13:20:06.492Z,51.10
2023-03-18T13:22:42.021Z,51.10
2023-03-18T13:25:31.256Z,51.10
2023-03-18T13:28:09.959Z,51.10
2023-03-18T13:30:48.550Z,51.10
2023-03-18T13:33:33.092Z,51.00
2023-03-18T13:35:59.657Z,51.00
2023-03-18T13:38:32.421Z,51.00
2023-03-18T13:41:08.484Z,51.70
2023-03-18T13:43:38.232Z,51.10
2023-03-18T13:46:05.028Z,51.10
2023-03-18T13:48:33.688Z,51.10
2023-03-18T13:51:17.137Z,51.10
2023-03-18T13:53:44.079Z,51.10
2023-03-18T13:56:29.968Z,51.10
2023-03-18T13:58:56.522Z,51.00
2023-03-18T14:01:28.506Z,51.00
2023-03-18T14:03:56.480Z,51.00
2023-03-18T14:06:24.305Z,51.00
2023-03-18T14:08:51.932Z,51.00
2023-03-18T14:11:25.141Z,50.90
2023-03-18T14:13:51.760Z,50.90
2023-03-18T14:16:23.104Z,50.90
2023-03-18T14:18:57.606Z,50.90
2023-03-18T14:21:28.163Z,50.90
2023-03-18T14:24:21.835Z,50.90
2023-03-18T14:27:03.476Z,50.90
2023-03-18T14:29:43.406Z,50.90
2023-03-18T14:32:28.934Z,50.90
2023-03-18T14:34:57.404Z,50.90
2023-03-18T14:37:29.353Z,50.90
2023-03-18T14:39:59.957Z,50.90
2023-03-18T14:42:32.074Z,51.00
2023-03-18T14:45:12.680Z,50.90
2023-03-18T14:47:41.591Z,50.90
2023-03-18T14:50:27.572Z,50.90
2023-03-18T14:52:57.358Z,50.90
2023-03-18T14:55:30.296Z,50.90
2023-03-18T14:57:57.489Z,50.90
2023-03-18T15:00:24.812Z,50.90
2023-03-18T15:03:00.704Z,50.90
2023-03-18T15:05:31.017Z,50.90
2023-03-18T15:07:57.688Z,50.90
2023-03-18T15:10:25.208Z,50.90
2023-03-18T15:13:01.962Z,50.90
2023-03-18T15:15:28.544Z,50.90
2023-03-18T15:17:55.080Z,50.90
2023-03-18T15:20:22.765Z,50.90
2023-03-18T15:22:50.013Z,50.90
2023-03-18T15:25:18.136Z,50.90
2023-03-18T15:27:45.710Z,50.90
2023-03-18T15:30:26.784Z,50.90
2023-03-18T15:33:04.557Z,50.90
2023-03-18T15:35:32.034Z,50.90
2023-03-18T15:38:03.985Z,50.90
2023-03-18T15:40:32.116Z,50.80
2023-03-18T15:43:19.102Z,50.90
2023-03-18T15:45:47.342Z,50.90
2023-03-18T15:48:23.494Z,50.90
2023-03-18T15:50:54.125Z,50.90
2023-03-18T15:53:39.743Z,50.80
2023-03-18T15:56:16.263Z,50.90
2023-03-18T15:58:44.912Z,50.90
2023-03-18T16:01:15.233Z,50.90
2023-03-18T16:03:42.154Z,50.90
2023-03-18T16:06:10.700Z,50.80
2023-03-18T16:08:37.211Z,50.90
2023-03-18T16:11:04.182Z,50.90
2023-03-18T16:13:33.288Z,50.90
2023-03-18T16:16:00.238Z,50.90
2023-03-18T16:18:27.138Z,50.90
2023-03-18T16:20:54.105Z,50.90
2023-03-18T16:23:20.861Z,50.90
2023-03-18T16:25:48.818Z,50.90
2023-03-18T16:28:17.805Z,50.90
2023-03-18T16:30:44.628Z,50.90
2023-03-18T16:33:13.702Z,50.90
2023-03-18T16:35:40.570Z,50.80
2023-03-18T16:38:12.278Z,51.00
2023-03-18T16:40:38.797Z,50.80
2023-03-18T16:43:09.897Z,50.80
2023-03-18T16:45:37.456Z,50.80
2023-03-18T16:48:07.407Z,50.80
2023-03-18T16:50:36.370Z,50.80
2023-03-18T16:53:03.579Z,50.80
2023-03-18T16:55:30.153Z,50.80
2023-03-18T16:57:58.526Z,50.80
2023-03-18T17:00:31.733Z,50.80
2023-03-18T17:02:59.052Z,50.90
2023-03-18T17:05:26.073Z,50.80
2023-03-18T17:07:52.985Z,50.90
2023-03-18T17:10:20.985Z,50.90
2023-03-18T17:13:02.330Z,50.90
2023-03-18T17:15:29.897Z,50.90
2023-03-18T17:17:58.513Z,51.00
2023-03-18T17:20:26.984Z,51.00
2023-03-18T17:22:54.124Z,51.10
2023-03-18T17:25:24.316Z,51.00
2023-03-18T17:27:52.964Z,50.90
2023-03-18T17:30:20.880Z,51.00
2023-03-18T17:32:48.297Z,51.00
2023-03-18T17:35:15.886Z,51.00
2023-03-18T17:37:42.711Z,51.00
2023-03-18T17:40:10.542Z,51.00
2023-03-18T17:42:37.157Z,51.00
2023-03-18T17:45:08.771Z,51.00
2023-03-18T17:47:35.293Z,51.00
2023-03-18T17:50:01.862Z,51.00
2023-03-18T17:52:28.443Z,51.10
2023-03-18T17:54:55.059Z,51.00
2023-03-18T17:57:21.598Z,51.10
2023-03-18T17:59:48.633Z,51.10
2023-03-18T18:02:17.950Z,51.10
2023-03-18T18:04:45.654Z,51.10
2023-03-18T18:07:19.445Z,51.10
2023-03-18T18:09:46.912Z,51.10
2023-03-18T18:12:23.182Z,51.10
2023-03-18T18:14:49.917Z,51.00
2023-03-18T18:17:16.785Z,51.10
2023-03-18T18:19:43.943Z,51.10
2023-03-18T18:22:14.263Z,51.10
2023-03-18T18:24:41.933Z,51.10
2023-03-18T18:27:12.879Z,51.10
2023-03-18T18:29:39.372Z,51.10
2023-03-18T18:32:05.969Z,51.20
2023-03-18T18:34:32.884Z,51.10
2023-03-18T18:36:59.425Z,51.20
2023-03-18T18:39:25.952Z,51.20
2023-03-18T18:41:52.882Z,51.20
2023-03-18T18:44:19.786Z,51.20
2023-03-18T18:46:46.558Z,51.20
2023-03-18T18:49:23.034Z,51.20
2023-03-18T18:51:50.568Z,51.20
2023-03-18T18:54:17.169Z,51.20
2023-03-18T18:56:43.835Z,51.20
2023-03-18T18:59:31.830Z,51.20
2023-03-18T19:01:58.465Z,51.20
2023-03-18T19:04:25.045Z,51.20
2023-03-18T19:06:52.391Z,51.20
2023-03-18T19:09:23.728Z,51.20
2023-03-18T19:11:51.572Z,51.20
2023-03-18T19:14:21.763Z,51.20
2023-03-18T19:16:48.755Z,51.20
2023-03-18T19:19:19.400Z,51.20
2023-03-18T19:21:46.044Z,51.20
2023-03-18T19:24:29.528Z,51.20
2023-03-18T19:26:57.626Z,51.20
2023-03-18T19:29:24.358Z,51.20
2023-03-18T19:31:51.121Z,51.20
2023-03-18T19:34:19.143Z,51.20
2023-03-18T19:36:48.339Z,51.20
2023-03-18T19:39:16.433Z,51.30
2023-03-18T19:41:43.632Z,51.30
2023-03-18T19:44:13.250Z,51.20
2023-03-18T19:46:39.976Z,51.30
2023-03-18T19:49:12.095Z,51.20
2023-03-18T19:51:38.625Z,51.30
2023-03-18T19:54:12.817Z,51.30
2023-03-18T19:56:39.320Z,51.30
2023-03-18T19:59:10.564Z,51.20
2023-03-18T20:01:37.166Z,51.20
2023-03-18T20:04:06.636Z,51.30
2023-03-18T20:06:33.375Z,51.30
2023-03-18T20:09:00.221Z,51.30
2023-03-18T20:11:26.776Z,51.40
2023-03-18T20:13:53.424Z,51.20
2023-03-18T20:16:21.554Z,51.20
2023-03-18T20:18:48.117Z,51.20
2023-03-18T20:21:22.212Z,51.20
2023-03-18T20:23:49.785Z,51.20
2023-03-18T20:26:16.446Z,51.30
2023-03-18T20:28:45.493Z,51.30
2023-03-18T20:31:12.201Z,51.20
2023-03-18T20:33:38.716Z,51.20
2023-03-18T20:36:06.129Z,51.30
2023-03-18T20:38:34.002Z,51.20
2023-03-18T20:41:00.930Z,51.20
2023-03-18T20:43:28.332Z,51.20
2023-03-18T20:45:56.540Z,51.20
2023-03-18T20:48:23.643Z,51.20
2023-03-18T20:50:51.066Z,51.20
2023-03-18T20:53:17.682Z,51.30
2023-03-18T20:55:45.139Z,51.20
2023-03-18T20:58:16.035Z,51.20
2023-03-18T21:00:43.489Z,51.20
2023-03-18T21:03:19.627Z,51.20
2023-03-18T21:05:46.361Z,51.30
2023-03-18T21:08:12.878Z,51.20
2023-03-18T21:10:39.481Z,51.20
2023-03-18T21:13:25.910Z,51.20
2023-03-18T21:15:52.819Z,51.20
2023-03-18T21:18:19.340Z,51.20
2023-03-18T21:20:45.998Z,51.50
2023-03-18T21:23:29.010Z,51.20
2023-03-18T21:25:56.034Z,51.20
2023-03-18T21:28:23.605Z,51.20
2023-03-18T21:30:51.688Z,51.20
2023-03-18T21:33:21.658Z,51.30
2023-03-18T21:35:50.229Z,51.20
2023-03-18T21:38:17.634Z,51.30
2023-03-18T21:40:44.373Z,51.20
2023-03-18T21:43:24.912Z,51.20
2023-03-18T21:45:51.866Z,51.20
2023-03-18T21:48:18.477Z,51.20
2023-03-18T21:50:45.077Z,51.20
2023-03-18T21:53:12.819Z,51.20
2023-03-18T21:55:39.335Z,51.20
2023-03-18T21:58:05.980Z,51.20
2023-03-18T22:00:32.567Z,51.10
2023-03-18T22:02:59.068Z,51.10
2023-03-18T22:05:25.712Z,51.20
2023-03-18T22:07:52.325Z,51.20
2023-03-18T22:10:23.148Z,51.20
2023-03-18T22:12:50.151Z,51.20
2023-03-18T22:15:39.127Z,51.20
2023-03-18T22:18:06.021Z,51.20
2023-03-18T22:20:34.731Z,51.20
2023-03-18T22:23:02.063Z,51.20
2023-03-18T22:25:31.166Z,51.20
2023-03-18T22:27:58.455Z,51.20
2023-03-18T22:30:25.587Z,51.20
2023-03-18T22:32:52.791Z,51.20
2023-03-18T22:35:20.823Z,51.20
2023-03-18T22:37:47.745Z,51.20
2023-03-18T22:40:27.625Z,51.20
2023-03-18T22:42:55.542Z,51.10
2023-03-18T22:45:23.630Z,51.20
2023-03-18T22:47:51.338Z,51.20
2023-03-18T22:50:18.358Z,51.10
2023-03-18T22:52:45.427Z,51.20
2023-03-18T22:55:23.239Z,51.20
2023-03-18T22:57:50.289Z,51.20
2023-03-18T23:00:36.638Z,51.20
2023-03-18T23:03:03.373Z,51.10
2023-03-18T23:05:30.013Z,51.20
2023-03-18T23:07:56.953Z,51.20
2023-03-18T23:10:23.480Z,51.20
2023-03-18T23:12:50.560Z,51.20
2023-03-18T23:15:18.495Z,51.20
2023-03-18T23:17:45.762Z,51.20
2023-03-18T23:20:13.436Z,51.10
2023-03-18T23:22:40.385Z,51.10
2023-03-18T23:25:07.164Z,51.10
2023-03-18T23:27:34.554Z,51.20
2023-03-18T23:30:01.212Z,51.10
2023-03-18T23:32:28.138Z,51.10
2023-03-18T23:34:54.648Z,51.20
2023-03-18T23:37:21.923Z,51.20
2023-03-18T23:39:48.464Z,51.20
2023-03-18T23:42:15.924Z,51.20
2023-03-18T23:44:43.080Z,51.20
2023-03-18T23:47:10.267Z,51.20
2023-03-18T23:49:37.176Z,51.20
2023-03-18T23:52:05.459Z,51.20
2023-03-18T23:54:33.987Z,51.20
2023-03-18T23:57:01.571Z,51.80
2023-03-18T23:59:28.430Z,51.20
